Time;durP1;ratioP1;P1;durP2;ratioP2;P2;SDS_P1;SDS_P2;PMS_P1;PMS_P2;Temp;Humidity;BMP_temperature;BMP_pressure;BME280_temperature;BME280_humidity;BME280_pressure;Samples;Min_cycle;Max_cycle;Signal;HPM_P1;HPM_P2
2022/03/30 00:01:32;;;;;;;30.57;16.90;;;6.60;99.90;;;;;;5008264;28;20033;-68
2022/03/30 00:03:58;;;;;;;32.40;16.83;;;6.40;99.90;;;;;;5008928;28;20420;-68
2022/03/30 00:06:24;;;;;;;31.57;15.53;;;;;;;;;;5007598;28;20040;-69
2022/03/30 00:08:50;;;;;;;33.03;16.80;;;;;;;;;;5008223;28;20018;-68
2022/03/30 00:11:16;;;;;;;27.27;16.53;;;;;;;;;;5008730;28;20018;-68
2022/03/30 00:13:41;;;;;;;28.93;15.43;;;6.40;99.90;;;;;;5008089;28;20894;-68
2022/03/30 00:16:09;;;;;;;30.20;17.03;;;6.40;99.90;;;;;;5008800;28;20546;-69
2022/03/30 00:18:35;;;;;;;32.70;17.20;;;;;;;;;;5009130;28;20479;-68
2022/03/30 00:21:01;;;;;;;30.60;16.47;;;;;;;;;;5011900;28;20029;-68
2022/03/30 00:23:27;;;;;;;27.97;15.80;;;6.30;99.90;;;;;;5009831;28;20388;-68
2022/03/30 00:25:52;;;;;;;35.77;18.10;;;6.10;99.90;;;;;;5011970;28;20041;-69
2022/03/30 00:28:18;;;;;;;37.03;17.87;;;6.10;99.90;;;;;;5010344;28;20058;-69
2022/03/30 00:30:44;;;;;;;29.80;17.73;;;6.20;99.90;;;;;;5011603;28;20060;-68
2022/03/30 00:33:09;;;;;;;29.80;16.97;;;6.00;99.90;;;;;;5011007;28;20037;-68
2022/03/30 00:35:35;;;;;;;30.30;15.40;;;;;;;;;;5011432;28;20109;-69
2022/03/30 00:38:01;;;;;;;30.00;17.03;;;6.00;99.90;;;;;;5011448;28;20396;-69
2022/03/30 00:40:27;;;;;;;38.50;19.43;;;6.10;99.90;;;;;;5011359;28;20105;-68
2022/03/30 00:42:53;;;;;;;30.60;16.80;;;;;;;;;;5011774;28;20149;-68
2022/03/30 00:45:23;;;;;;;27.90;16.07;;;5.90;99.90;;;;;;5011693;28;20103;-69
2022/03/30 00:47:49;;;;;;;30.33;18.20;;;5.80;99.90;;;;;;5012308;28;20113;-69
2022/03/30 00:50:17;;;;;;;30.97;18.07;;;5.80;99.90;;;;;;5011813;28;20109;-68
2022/03/30 00:52:47;;;;;;;34.40;17.83;;;5.80;99.90;;;;;;5010745;28;20050;-69
2022/03/30 00:55:16;;;;;;;36.07;18.67;;;5.80;99.90;;;;;;5011475;28;20120;-68
2022/03/30 00:57:43;;;;;;;40.33;18.60;;;5.70;99.90;;;;;;5009153;28;20121;-68
2022/03/30 01:00:11;;;;;;;41.90;18.20;;;5.70;99.90;;;;;;5010100;28;20034;-68
2022/03/30 01:02:39;;;;;;;32.73;16.83;;;5.70;99.90;;;;;;5011104;28;20494;-69
2022/03/30 01:05:05;;;;;;;23.93;16.07;;;5.60;99.90;;;;;;5011419;28;20521;-69
2022/03/30 01:07:31;;;;;;;32.37;18.83;;;5.50;99.90;;;;;;5010453;28;20399;-68
2022/03/30 01:09:56;;;;;;;32.60;17.73;;;5.50;99.90;;;;;;5011422;28;20032;-68
2022/03/30 01:12:22;;;;;;;38.23;17.80;;;;;;;;;;5011233;28;20469;-69
2022/03/30 01:14:48;;;;;;;39.87;16.17;;;;;;;;;;5011476;28;20026;-68
2022/03/30 01:17:14;;;;;;;29.77;16.10;;;5.50;99.90;;;;;;5011279;28;20104;-68
2022/03/30 01:19:39;;;;;;;36.03;16.50;;;5.40;99.90;;;;;;5010609;28;20076;-68
2022/03/30 01:22:07;;;;;;;33.30;16.93;;;;;;;;;;5009409;28;20037;-67
2022/03/30 01:24:34;;;;;;;37.27;17.20;;;5.40;99.90;;;;;;5010361;28;20449;-68
2022/03/30 01:27:00;;;;;;;36.27;17.00;;;;;;;;;;5009119;28;20133;-68
2022/03/30 01:32:26;;;;;;;27.33;15.48;;;5.40;99.90;;;;;;4996567;28;20088;-69
2022/03/30 01:34:59;;;;;;;29.63;15.47;;;5.40;99.90;;;;;;5010977;28;20383;-68
2022/03/30 01:37:28;;;;;;;28.50;16.35;;;5.30;99.90;;;;;;5010392;28;20446;-68
2022/03/30 01:39:55;;;;;;;31.50;16.00;;;4.70;99.90;;;;;;5006102;28;20418;-68
2022/03/30 01:42:21;;;;;;;32.77;15.30;;;;;;;;;;5007026;28;20022;-68
2022/03/30 01:44:47;;;;;;;30.33;14.90;;;;;;;;;;5009840;28;20049;-68
2022/03/30 01:47:13;;;;;;;30.73;14.27;;;;;;;;;;5010207;28;20022;-68
2022/03/30 01:49:39;;;;;;;27.30;15.13;;;5.40;99.90;;;;;;5009573;28;20034;-68
2022/03/30 01:52:05;;;;;;;35.80;15.80;;;5.30;99.90;;;;;;5010476;28;20029;-68
2022/03/30 01:54:35;;;;;;;31.43;16.60;;;5.40;99.90;;;;;;5008677;28;20339;-68
2022/03/30 01:57:01;;;;;;;33.50;15.47;;;5.10;99.90;;;;;;5009481;28;20106;-68
2022/03/30 01:59:27;;;;;;;24.87;12.80;;;;;;;;;;5009610;28;20416;-68
2022/03/30 02:01:52;;;;;;;34.23;15.57;;;5.30;99.90;;;;;;5010141;28;20446;-69
2022/03/30 02:04:18;;;;;;;27.93;14.77;;;;;;;;;;5009733;28;20042;-68
2022/03/30 02:06:44;;;;;;;25.40;16.43;;;5.20;99.90;;;;;;5009912;28;20402;-68
2022/03/30 02:09:12;;;;;;;31.97;15.57;;;;;;;;;;5009998;28;20034;-68
2022/03/30 02:11:38;;;;;;;29.07;14.77;;;5.10;99.90;;;;;;5009537;28;20042;-69
2022/03/30 02:14:04;;;;;;;30.60;16.07;;;5.30;99.90;;;;;;5010168;28;20037;-69
2022/03/30 02:16:30;;;;;;;34.83;15.70;;;4.90;99.90;;;;;;5009748;28;20034;-68
2022/03/30 02:18:56;;;;;;;30.03;15.83;;;4.80;99.90;;;;;;5009436;28;20045;-68
2022/03/30 02:21:22;;;;;;;24.90;15.03;;;;;;;;;;5009963;28;20053;-68
2022/03/30 02:23:49;;;;;;;24.13;14.17;;;4.60;99.90;;;;;;5009851;28;20136;-68
2022/03/30 02:26:15;;;;;;;28.03;14.30;;;4.60;99.90;;;;;;5009471;28;20026;-68
2022/03/30 02:28:42;;;;;;;37.33;16.17;;;4.70;99.90;;;;;;5009111;28;20487;-68
2022/03/30 02:31:08;;;;;;;32.17;14.70;;;4.60;99.90;;;;;;5009802;28;20028;-68
2022/03/30 02:33:34;;;;;;;32.53;17.67;;;4.60;99.90;;;;;;5008629;28;20487;-68
2022/03/30 02:36:00;;;;;;;34.20;15.20;;;;;;;;;;5009967;28;20022;-68
2022/03/30 02:38:25;;;;;;;32.50;15.17;;;4.50;99.90;;;;;;5009212;28;20051;-68
2022/03/30 02:40:51;;;;;;;25.97;13.47;;;;;;;;;;5009495;28;20037;-68
2022/03/30 02:43:19;;;;;;;26.63;14.17;;;4.50;99.90;;;;;;5009850;28;20029;-68
2022/03/30 02:45:45;;;;;;;28.90;14.60;;;4.40;99.90;;;;;;5009303;28;20029;-68
2022/03/30 02:48:22;;;;;;;30.33;14.37;;;4.60;99.90;;;;;;5009077;28;20030;-68
2022/03/30 02:50:53;;;;;;;26.20;14.87;;;4.40;99.90;;;;;;5009797;28;20506;-68
2022/03/30 02:53:19;;;;;;;31.47;15.50;;;;;;;;;;5009327;28;20083;-68
2022/03/30 02:55:45;;;;;;;28.47;16.10;;;4.30;99.90;;;;;;5008994;28;20026;-68
2022/03/30 02:58:11;;;;;;;25.50;15.00;;;4.00;99.90;;;;;;5009362;28;20601;-68
2022/03/30 03:00:41;;;;;;;29.20;14.57;;;4.30;99.90;;;;;;5000691;28;20034;-68
2022/03/30 03:03:08;;;;;;;25.23;14.33;;;4.30;99.90;;;;;;5008130;28;20061;-68
2022/03/30 03:05:34;;;;;;;30.80;13.97;;;4.30;99.90;;;;;;5007338;28;20039;-68
2022/03/30 03:08:05;;;;;;;26.37;12.97;;;4.20;99.90;;;;;;5007145;28;20033;-68
2022/03/30 03:10:34;;;;;;;31.93;14.50;;;4.20;99.90;;;;;;5008648;28;20029;-68
2022/03/30 03:13:03;;;;;;;30.53;15.03;;;4.20;99.90;;;;;;5009448;28;20021;-68
2022/03/30 03:15:30;;;;;;;26.47;13.97;;;4.20;99.90;;;;;;5008610;28;20054;-68
2022/03/30 03:17:55;;;;;;;29.33;15.57;;;4.40;99.90;;;;;;5008476;28;20034;-68
2022/03/30 03:20:21;;;;;;;26.60;15.03;;;;;;;;;;5008768;28;20041;-68
2022/03/30 03:22:47;;;;;;;26.40;14.30;;;4.30;99.90;;;;;;5008912;28;20407;-68
2022/03/30 03:25:13;;;;;;;25.50;14.17;;;;;;;;;;5009021;28;20495;-68
2022/03/30 03:27:38;;;;;;;26.00;13.57;;;4.10;99.90;;;;;;5008565;28;20091;-68
2022/03/30 03:30:06;;;;;;;26.43;13.60;;;4.00;99.90;;;;;;5008681;28;20574;-68
2022/03/30 03:32:31;;;;;;;30.03;13.90;;;3.90;99.90;;;;;;5007361;28;20018;-68
2022/03/30 03:34:57;;;;;;;31.47;15.30;;;4.10;99.90;;;;;;5008213;28;20355;-68
2022/03/30 03:37:23;;;;;;;31.17;14.90;;;;;;;;;;5008343;28;20022;-68
2022/03/30 03:39:49;;;;;;;31.60;12.87;;;3.90;99.90;;;;;;5009263;28;20383;-68
2022/03/30 03:42:16;;;;;;;26.77;13.90;;;3.90;99.90;;;;;;5009220;28;20112;-68
2022/03/30 03:44:42;;;;;;;29.90;14.73;;;3.50;99.90;;;;;;5008448;28;20037;-69
2022/03/30 03:47:09;;;;;;;35.10;16.17;;;3.90;99.90;;;;;;5007152;28;20498;-68
2022/03/30 03:49:35;;;;;;;26.60;13.63;;;;;;;;;;5008182;28;20036;-68
2022/03/30 03:52:01;;;;;;;29.90;14.67;;;3.70;99.90;;;;;;5008871;28;20026;-68
2022/03/30 03:54:26;;;;;;;24.67;11.63;;;;;;;;;;5010850;28;20033;-68
2022/03/30 03:56:52;;;;;;;28.93;12.30;;;3.50;99.90;;;;;;5012394;28;20057;-68
2022/03/30 03:59:19;;;;;;;28.37;14.10;;;;;;;;;;5012508;28;20171;-69
2022/03/30 04:01:44;;;;;;;30.83;15.20;;;;;;;;;;5011407;28;20132;-68
2022/03/30 04:04:10;;;;;;;31.63;15.80;;;;;;;;;;5012159;28;20099;-69
2022/03/30 04:06:36;;;;;;;27.40;14.00;;;3.70;99.90;;;;;;5011668;28;20022;-68
2022/03/30 04:09:02;;;;;;;25.83;14.53;;;3.60;99.90;;;;;;5012539;28;20403;-69
2022/03/30 04:11:28;;;;;;;35.67;14.50;;;3.50;99.90;;;;;;5011426;28;20037;-68
2022/03/30 04:13:54;;;;;;;29.17;15.00;;;;;;;;;;5012454;28;20038;-68
2022/03/30 04:16:20;;;;;;;25.27;13.90;;;3.60;99.90;;;;;;5011788;28;20057;-68
2022/03/30 04:18:46;;;;;;;27.50;13.13;;;3.50;99.90;;;;;;5011613;28;20030;-68
2022/03/30 04:21:12;;;;;;;21.83;12.27;;;;;;;;;;5012533;28;20044;-68
2022/03/30 04:23:37;;;;;;;25.90;14.10;;;3.50;99.90;;;;;;5011488;28;20096;-68
2022/03/30 04:26:04;;;;;;;30.10;14.17;;;3.30;99.90;;;;;;5011590;28;20127;-68
2022/03/30 04:28:30;;;;;;;26.90;14.73;;;3.40;99.90;;;;;;5009998;28;20117;-68
2022/03/30 04:30:55;;;;;;;27.50;14.97;;;3.30;99.90;;;;;;5011256;28;20121;-68
2022/03/30 04:33:21;;;;;;;27.00;14.20;;;;;;;;;;5012016;28;20018;-68
2022/03/30 04:35:47;;;;;;;24.63;13.57;;;3.40;99.90;;;;;;5011479;28;20403;-68
2022/03/30 04:38:14;;;;;;;33.77;15.60;;;;;;;;;;5012189;28;20017;-68
2022/03/30 04:40:40;;;;;;;34.20;16.10;;;3.30;99.90;;;;;;5010998;28;20474;-68
2022/03/30 04:43:06;;;;;;;33.07;16.03;;;;;;;;;;5011813;28;20479;-68
2022/03/30 04:45:31;;;;;;;26.40;14.10;;;3.30;99.90;;;;;;5010612;28;20049;-68
2022/03/30 04:47:57;;;;;;;37.33;14.53;;;3.20;99.90;;;;;;5011365;28;20054;-68
2022/03/30 04:50:23;;;;;;;36.83;16.63;;;3.20;99.90;;;;;;5011565;28;20045;-68
2022/03/30 04:52:49;;;;;;;35.13;15.47;;;3.20;99.90;;;;;;5011546;28;20471;-68
2022/03/30 04:55:15;;;;;;;37.10;15.97;;;3.10;99.90;;;;;;5011758;28;20025;-68
2022/03/30 04:57:41;;;;;;;38.57;15.90;;;3.10;99.90;;;;;;5010620;28;20038;-68
2022/03/30 05:00:09;;;;;;;34.90;15.13;;;3.10;99.90;;;;;;5010478;28;20493;-68
2022/03/30 05:02:36;;;;;;;35.80;15.43;;;3.10;99.90;;;;;;5010510;28;20477;-68
2022/03/30 05:05:02;;;;;;;33.70;14.93;;;3.00;99.90;;;;;;5009862;28;20056;-68
2022/03/30 05:07:28;;;;;;;40.43;15.03;;;2.60;99.90;;;;;;5010989;28;20068;-68
2022/03/30 05:09:54;;;;;;;30.13;16.13;;;;;;;;;;5011122;28;20034;-68
2022/03/30 05:12:19;;;;;;;28.23;14.63;;;3.00;99.90;;;;;;5010325;28;20021;-68
2022/03/30 05:14:45;;;;;;;32.43;15.63;;;;;;;;;;5010342;28;20434;-68
2022/03/30 05:17:11;;;;;;;31.13;15.63;;;3.00;99.90;;;;;;5011335;28;20057;-68
2022/03/30 05:19:40;;;;;;;21.37;14.17;;;2.90;99.90;;;;;;5010519;28;20038;-68
2022/03/30 05:22:05;;;;;;;27.07;14.53;;;2.90;99.90;;;;;;5001215;28;20027;-67
2022/03/30 05:24:31;;;;;;;30.10;14.30;;;2.80;99.90;;;;;;4994102;28;20144;-68
2022/03/30 05:26:57;;;;;;;29.70;14.43;;;2.90;99.90;;;;;;5010618;28;20077;-68
2022/03/30 05:29:23;;;;;;;26.70;14.33;;;;;;;;;;5009936;28;20030;-68
2022/03/30 05:31:49;;;;;;;23.20;13.53;;;3.00;99.90;;;;;;5010438;28;20084;-68
2022/03/30 05:34:15;;;;;;;30.77;14.80;;;;;;;;;;5010396;28;20033;-68
2022/03/30 05:36:41;;;;;;;31.77;14.83;;;3.50;99.90;;;;;;5010001;28;20037;-68
2022/03/30 05:39:07;;;;;;;25.53;15.50;;;;;;;;;;5010575;28;20038;-68
2022/03/30 05:41:33;;;;;;;26.27;13.73;;;3.20;99.90;;;;;;5008867;28;20057;-69
2022/03/30 05:44:00;;;;;;;36.73;14.70;;;3.20;99.90;;;;;;5008657;28;20117;-69
2022/03/30 05:46:26;;;;;;;33.53;14.73;;;3.60;99.90;;;;;;5009196;28;20312;-69
2022/03/30 05:48:51;;;;;;;29.70;14.33;;;3.20;99.90;;;;;;5010533;28;20028;-69
2022/03/30 05:51:18;;;;;;;27.37;14.67;;;3.00;99.90;;;;;;5004597;28;20398;-69
2022/03/30 05:53:44;;;;;;;30.27;14.63;;;2.80;99.90;;;;;;5005168;28;20054;-69
2022/03/30 05:56:09;;;;;;;28.97;15.80;;;3.00;99.90;;;;;;5001874;28;20113;-69
2022/03/30 05:58:35;;;;;;;30.43;14.90;;;3.40;99.90;;;;;;4990010;28;20061;-69
2022/03/30 06:01:00;;;;;;;28.90;15.27;;;3.10;99.90;;;;;;4990757;28;20034;-69
2022/03/30 06:03:26;;;;;;;32.17;14.63;;;;;;;;;;5003893;28;20088;-69
2022/03/30 06:05:52;;;;;;;31.23;15.57;;;3.50;99.90;;;;;;5010451;28;20431;-69
2022/03/30 06:08:18;;;;;;;30.20;16.80;;;3.70;99.90;;;;;;5009373;28;20117;-69
2022/03/30 06:10:44;;;;;;;34.30;18.60;;;3.50;99.90;;;;;;5008160;28;20034;-69
2022/03/30 06:13:09;;;;;;;30.97;15.30;;;3.50;99.90;;;;;;5010408;28;20029;-69
2022/03/30 06:15:37;;;;;;;33.07;14.93;;;3.50;99.90;;;;;;5009717;28;20072;-70
2022/03/30 06:18:05;;;;;;;32.67;16.17;;;3.70;99.90;;;;;;5010057;28;20460;-69
2022/03/30 06:20:31;;;;;;;33.40;16.87;;;3.60;99.90;;;;;;5009802;28;20026;-69
2022/03/30 06:22:56;;;;;;;29.47;16.00;;;3.70;99.90;;;;;;5009983;28;20124;-69
2022/03/30 06:25:24;;;;;;;34.23;16.63;;;3.60;99.90;;;;;;5009504;28;20045;-69
2022/03/30 06:27:50;;;;;;;27.20;15.30;;;3.50;99.90;;;;;;5010102;28;20101;-69
2022/03/30 06:30:16;;;;;;;28.73;14.17;;;3.80;99.90;;;;;;5010203;28;20031;-69
2022/03/30 06:32:42;;;;;;;27.13;14.80;;;3.70;99.90;;;;;;5009683;28;21027;-69
2022/03/30 06:35:08;;;;;;;30.50;14.50;;;3.70;99.90;;;;;;5010199;28;20113;-70
2022/03/30 06:37:34;;;;;;;32.33;14.43;;;3.80;99.90;;;;;;5009480;28;20379;-71
2022/03/30 06:40:00;;;;;;;37.27;15.47;;;;;;;;;;5009568;28;20026;-69
2022/03/30 06:42:26;;;;;;;32.97;14.60;;;;;;;;;;5004747;28;20540;-69
2022/03/30 06:44:52;;;;;;;25.70;14.67;;;4.00;99.90;;;;;;5023754;28;20038;-70
2022/03/30 06:47:18;;;;;;;32.10;15.30;;;;;;;;;;5028742;28;20033;-69
2022/03/30 06:49:43;;;;;;;25.50;14.03;;;3.80;99.90;;;;;;5007572;28;20477;-69
2022/03/30 06:52:10;;;;;;;28.07;15.10;;;4.20;99.90;;;;;;5002127;28;20153;-70
2022/03/30 06:54:37;;;;;;;28.83;14.23;;;4.40;99.90;;;;;;5008700;28;20026;-70
2022/03/30 06:57:03;;;;;;;31.40;14.23;;;4.50;99.90;;;;;;5009635;28;20018;-70
2022/03/30 06:59:29;;;;;;;30.83;14.17;;;;;;;;;;5005523;28;20029;-69
2022/03/30 07:01:56;;;;;;;29.23;12.63;;;;;;;;;;5000284;28;20030;-69
2022/03/30 07:04:22;;;;;;;30.67;14.73;;;;;;;;;;5009458;28;20046;-70
2022/03/30 07:12:17;;;;;;;22.75;14.52;;;;;;;;;;5009609;28;20108;-70
2022/03/30 07:14:46;;;;;;;25.53;13.60;;;5.70;99.90;;;;;;5008382;28;20504;-69
2022/03/30 07:17:11;;;;;;;25.60;13.20;;;5.80;99.90;;;;;;4998885;28;20026;-69
2022/03/30 07:19:38;;;;;;;29.23;13.37;;;5.90;99.90;;;;;;4989239;28;20030;-69
2022/03/30 07:22:04;;;;;;;22.07;13.57;;;5.90;99.90;;;;;;4989470;28;20097;-69
2022/03/30 07:24:29;;;;;;;23.37;12.40;;;6.20;99.90;;;;;;4996411;28;20038;-70
2022/03/30 07:26:55;;;;;;;25.33;11.50;;;6.30;99.90;;;;;;5008967;28;20030;-70
2022/03/30 07:29:21;;;;;;;22.70;12.43;;;;;;;;;;5010844;28;20026;-69
2022/03/30 07:31:47;;;;;;;21.10;10.97;;;;;;;;;;5009103;28;20022;-70
2022/03/30 07:34:13;;;;;;;28.83;14.47;;;;;;;;;;5010289;28;20028;-70
2022/03/30 07:36:38;;;;;;;22.07;13.03;;;6.70;99.90;;;;;;5011707;28;20517;-69
2022/03/30 07:39:04;;;;;;;21.40;12.93;;;7.00;99.90;;;;;;5012820;28;20110;-69
2022/03/30 07:41:30;;;;;;;28.67;13.43;;;;;;;;;;5012455;28;20029;-69
2022/03/30 07:43:56;;;;;;;24.20;13.20;;;6.90;99.90;;;;;;5012189;28;20036;-69
2022/03/30 07:46:22;;;;;;;23.73;11.87;;;;;;;;;;5007861;28;20387;-70
2022/03/30 07:48:48;;;;;;;20.90;12.37;;;;;;;;;;4993297;28;20065;-70
2022/03/30 07:51:14;;;;;;;20.87;10.90;;;;;;;;;;4993367;28;20026;-70
2022/03/30 07:53:39;;;;;;;21.80;12.23;;;6.80;99.90;;;;;;5007892;28;20238;-68
2022/03/30 07:56:05;;;;;;;24.43;12.77;;;7.10;99.90;;;;;;5012139;28;20420;-69
2022/03/30 07:58:30;;;;;;;23.03;13.30;;;7.10;99.90;;;;;;5012190;28;20125;-70
2022/03/30 08:00:56;;;;;;;25.63;13.50;;;7.30;99.90;;;;;;5012805;28;20029;-69
2022/03/30 08:03:22;;;;;;;27.07;14.87;;;;;;;;;;5007976;28;20053;-69
2022/03/30 08:05:48;;;;;;;28.00;13.70;;;7.40;99.90;;;;;;4996686;28;20042;-68
2022/03/30 08:08:14;;;;;;;19.03;11.37;;;;;;;;;;5009096;28;20357;-70
2022/03/30 08:10:39;;;;;;;18.43;12.03;;;7.60;99.90;;;;;;5011756;28;20037;-70
2022/03/30 08:13:05;;;;;;;23.17;14.90;;;7.60;99.90;;;;;;5009114;28;20036;-68
2022/03/30 08:15:32;;;;;;;22.37;12.23;;;7.70;99.90;;;;;;5012024;28;20041;-70
2022/03/30 08:17:58;;;;;;;24.97;12.30;;;7.90;99.90;;;;;;5012394;28;20036;-68
2022/03/30 08:23:08;;;;;;;26.00;14.53;;;7.80;99.90;;;;;;5008340;28;20080;-68
2022/03/30 08:25:36;;;;;;;27.67;14.23;;;7.80;99.90;;;;;;5011129;28;20107;-68
2022/03/30 08:28:03;;;;;;;25.43;14.57;;;7.80;99.90;;;;;;5011868;28;20475;-69
2022/03/30 08:30:29;;;;;;;29.60;14.77;;;;;;;;;;5010825;28;20034;-68
2022/03/30 08:32:55;;;;;;;25.57;12.87;;;7.80;99.90;;;;;;5010755;28;20026;-68
2022/03/30 08:35:22;;;;;;;27.40;13.30;;;7.90;99.90;;;;;;5011144;28;20424;-68
2022/03/30 08:37:48;;;;;;;28.23;15.30;;;;;;;;;;5004878;28;20058;-69
2022/03/30 08:40:14;;;;;;;29.17;15.43;;;8.00;99.90;;;;;;5010925;28;20492;-69
2022/03/30 08:42:41;;;;;;;23.43;14.53;;;8.30;99.90;;;;;;5011530;28;20113;-69
2022/03/30 08:45:09;;;;;;;21.57;12.60;;;8.20;99.90;;;;;;5009069;28;20474;-69
2022/03/30 08:47:35;;;;;;;21.93;12.10;;;8.30;99.90;;;;;;5010666;28;20038;-68
2022/03/30 08:50:02;;;;;;;21.70;12.73;;;8.40;99.90;;;;;;5011428;28;20045;-69
2022/03/30 08:52:28;;;;;;;22.47;11.60;;;8.50;99.90;;;;;;5011379;28;20028;-69
2022/03/30 08:54:54;;;;;;;20.70;11.40;;;;;;;;;;5003027;28;20109;-69
2022/03/30 08:57:20;;;;;;;19.80;11.00;;;8.90;99.90;;;;;;5011464;28;20030;-70
2022/03/30 09:00:13;;;;;;;17.70;10.03;;;9.00;99.60;;;;;;5009559;28;20087;-68
2022/03/30 09:02:41;;;;;;;17.57;9.97;;;8.90;99.90;;;;;;5014720;28;20049;-69
2022/03/30 09:05:20;;;;;;;15.37;9.77;;;8.80;99.90;;;;;;5031133;28;20442;-69
2022/03/30 09:07:48;;;;;;;16.20;9.97;;;9.10;99.90;;;;;;5012160;28;20109;-69
2022/03/30 09:10:35;;;;;;;14.70;10.03;;;8.30;99.90;;;;;;5011519;28;20033;-69
2022/03/30 09:13:02;;;;;;;17.37;10.53;;;8.50;99.90;;;;;;4996811;28;20114;-68
2022/03/30 09:15:28;;;;;;;12.63;9.57;;;8.70;99.90;;;;;;5010623;28;20049;-69
2022/03/30 09:18:02;;;;;;;16.57;10.03;;;8.70;99.90;;;;;;5011154;28;20415;-68
2022/03/30 09:20:28;;;;;;;20.37;10.80;;;8.70;99.90;;;;;;5010286;28;20021;-68
2022/03/30 09:22:55;;;;;;;15.57;9.47;;;8.90;99.90;;;;;;5010087;28;20576;-70
2022/03/30 09:25:29;;;;;;;16.90;9.67;;;9.20;99.90;;;;;;5010145;28;20034;-69
2022/03/30 09:27:56;;;;;;;14.93;10.23;;;8.70;99.90;;;;;;5010354;28;20018;-69
2022/03/30 09:30:24;;;;;;;16.80;8.90;;;9.10;99.10;;;;;;5008670;28;20030;-69
2022/03/30 09:32:52;;;;;;;16.67;10.50;;;;;;;;;;5010038;28;20044;-68
2022/03/30 09:35:27;;;;;;;20.13;11.00;;;9.20;99.90;;;;;;5009933;28;20360;-69
2022/03/30 09:38:22;;;;;;;18.80;10.20;;;9.10;99.90;;;;;;5010164;28;20030;-68
2022/03/30 09:40:54;;;;;;;15.63;10.40;;;9.10;99.20;;;;;;4995629;28;20049;-69
2022/03/30 09:43:24;;;;;;;15.60;8.90;;;9.00;99.20;;;;;;5009572;28;20135;-69
2022/03/30 09:46:08;;;;;;;17.70;10.00;;;9.30;99.90;;;;;;5007840;28;20124;-70
2022/03/30 09:48:40;;;;;;;17.33;9.93;;;9.30;99.90;;;;;;5006235;28;20068;-69
2022/03/30 09:51:07;;;;;;;12.90;8.80;;;9.10;99.90;;;;;;5009251;28;20022;-69
2022/03/30 09:53:34;;;;;;;16.43;9.30;;;9.10;99.90;;;;;;5009430;28;20034;-68
2022/03/30 09:56:02;;;;;;;18.93;10.97;;;9.30;99.10;;;;;;5010230;28;20096;-69
2022/03/30 09:58:34;;;;;;;16.80;10.90;;;9.20;99.90;;;;;;5007785;28;20061;-69
2022/03/30 10:01:17;;;;;;;16.27;9.77;;;9.60;99.90;;;;;;5006685;28;20498;-69
2022/03/30 10:03:44;;;;;;;18.03;9.67;;;9.40;99.90;;;;;;5009153;28;20503;-69
2022/03/30 10:06:11;;;;;;;16.87;10.27;;;9.40;99.90;;;;;;5007650;28;20041;-70
2022/03/30 10:08:41;;;;;;;14.30;9.73;;;9.70;99.90;;;;;;4996558;28;20500;-69
2022/03/30 10:11:09;;;;;;;13.93;8.87;;;9.60;99.90;;;;;;4990476;28;20026;-69
2022/03/30 10:13:35;;;;;;;16.90;9.60;;;9.60;99.90;;;;;;5005210;28;20041;-71
2022/03/30 10:16:01;;;;;;;12.47;8.87;;;9.60;98.30;;;;;;5010194;28;20104;-68
2022/03/30 10:18:32;;;;;;;15.00;9.70;;;9.50;99.90;;;;;;4995739;28;20069;-69
2022/03/30 10:21:16;;;;;;;13.23;8.93;;;9.60;99.90;;;;;;4996293;28;20025;-69
2022/03/30 10:24:13;;;;;;;13.30;7.83;;;9.80;99.90;;;;;;5009283;28;20798;-69
2022/03/30 10:27:10;;;;;;;18.67;9.13;;;10.00;99.90;;;;;;5008899;28;20471;-69
2022/03/30 10:29:37;;;;;;;12.30;8.73;;;10.00;99.90;;;;;;5004220;28;20037;-69
2022/03/30 10:32:24;;;;;;;13.77;8.43;;;9.90;99.90;;;;;;5004569;28;20109;-69
2022/03/30 10:34:59;;;;;;;13.60;9.23;;;10.00;99.90;;;;;;5009294;28;20030;-69
2022/03/30 10:37:27;;;;;;;10.10;7.17;;;9.90;96.00;;;;;;5008711;28;20108;-69
2022/03/30 10:40:04;;;;;;;11.17;6.83;;;9.90;99.90;;;;;;5009453;28;20471;-69
2022/03/30 10:42:53;;;;;;;11.40;6.60;;;10.10;99.90;;;;;;5009397;28;20022;-69
2022/03/30 10:45:40;;;;;;;10.37;6.77;;;10.50;99.90;;;;;;5009702;28;20030;-69
2022/03/30 10:48:20;;;;;;;10.40;7.10;;;10.80;99.90;;;;;;5001492;28;20026;-69
2022/03/30 10:51:04;;;;;;;9.43;6.10;;;11.10;99.90;;;;;;4989394;28;20026;-70
2022/03/30 10:53:30;;;;;;;8.60;6.07;;;11.20;99.90;;;;;;4989875;28;20022;-69
2022/03/30 10:56:15;;;;;;;10.10;6.77;;;10.90;99.90;;;;;;4990007;28;20022;-69
2022/03/30 10:58:53;;;;;;;11.90;6.40;;;11.40;99.90;;;;;;4990490;28;20022;-69
2022/03/30 11:01:30;;;;;;;9.50;6.30;;;11.40;99.40;;;;;;4989677;28;20648;-69
2022/03/30 11:03:56;;;;;;;11.10;6.83;;;11.20;93.10;;;;;;4990194;28;20026;-69
2022/03/30 11:06:23;;;;;;;11.02;8.15;;;;;;;;;;5006190;28;20482;-69
2022/03/30 11:08:48;;;;;;;9.20;6.40;;;11.30;91.70;;;;;;5009049;28;20022;-69
2022/03/30 11:11:35;;;;;;;10.17;6.37;;;11.30;98.90;;;;;;5008707;28;20387;-69
2022/03/30 11:14:39;;;;;;;10.97;6.60;;;11.50;93.10;;;;;;4990063;28;20034;-69
2022/03/30 11:17:14;;;;;;;10.70;7.07;;;11.80;92.30;;;;;;4985336;28;20039;-69
2022/03/30 11:19:49;;;;;;;8.77;6.47;;;12.20;92.70;;;;;;4971951;28;20039;-69
2022/03/30 11:22:29;;;;;;;10.73;6.80;;;12.20;92.10;;;;;;4989882;28;20487;-69
2022/03/30 11:25:07;;;;;;;12.97;7.60;;;12.30;97.80;;;;;;4989745;28;20038;-70
2022/03/30 11:27:33;;;;;;;10.20;7.07;;;12.30;90.60;;;;;;4989339;28;20361;-69
2022/03/30 11:30:04;;;;;;;12.20;7.33;;;12.30;97.70;;;;;;4988835;28;20065;-70
2022/03/30 11:32:37;;;;;;;10.67;7.73;;;12.10;90.00;;;;;;4988681;28;20026;-69
2022/03/30 11:35:10;;;;;;;9.77;6.80;;;11.90;97.60;;;;;;4988454;28;20038;-68
2022/03/30 11:37:45;;;;;;;9.82;7.00;;;12.50;91.40;;;;;;4988852;28;20031;-73
2022/03/30 11:40:12;;;;;;;12.48;7.13;;;12.00;91.10;;;;;;4996760;28;20022;-68
2022/03/30 11:42:44;;;;;;;8.13;5.93;;;12.40;97.40;;;;;;5022998;28;20064;-68
2022/03/30 11:45:12;;;;;;;8.77;6.95;;;12.60;90.90;;;;;;5008026;28;20033;-68
2022/03/30 11:47:47;;;;;;;11.63;7.43;;;12.50;96.60;;;;;;5008375;28;20174;-68
2022/03/30 11:50:15;;;;;;;9.43;5.70;;;13.30;90.30;;;;;;4989988;28;20022;-69
2022/03/30 11:52:42;;;;;;;11.63;7.07;;;12.60;89.70;;;;;;5008110;28;20034;-68
2022/03/30 11:55:08;;;;;;;8.37;5.47;;;12.70;89.40;;;;;;5004937;28;20027;-68
2022/03/30 11:57:41;;;;;;;8.90;6.10;;;12.70;88.70;;;;;;5012003;28;20124;-68
2022/03/30 12:00:09;;;;;;;10.10;5.82;;;12.70;89.40;;;;;;5028886;28;20410;-68
2022/03/30 12:02:37;;;;;;;9.38;6.40;;;12.50;87.80;;;;;;5008891;28;20077;-68
2022/03/30 12:05:03;;;;;;;10.43;5.43;;;12.60;88.40;;;;;;5010078;28;20058;-68
2022/03/30 12:07:33;;;;;;;9.70;6.00;;;12.20;87.40;;;;;;5019859;28;20025;-68
2022/03/30 12:09:59;;;;;;;7.93;6.22;;;;;;;;;;5027611;28;20366;-68
2022/03/30 12:12:31;;;;;;;10.23;6.03;;;12.10;85.70;;;;;;4990689;28;20045;-68
2022/03/30 12:15:01;;;;;;;8.40;5.97;;;12.70;89.40;;;;;;4990117;28;20030;-68
2022/03/30 12:17:27;;;;;;;6.97;5.53;;;12.00;88.40;;;;;;5009236;28;20382;-68
2022/03/30 12:19:54;;;;;;;8.00;4.97;;;12.00;88.20;;;;;;5003529;28;20029;-68
2022/03/30 12:22:20;;;;;;;8.63;6.57;;;12.00;95.50;;;;;;5025139;28;20661;-68
2022/03/30 12:24:46;;;;;;;8.25;6.18;;;12.10;87.50;;;;;;5027503;28;20163;-68
2022/03/30 12:27:12;;;;;;;10.18;5.82;;;12.00;87.00;;;;;;5011936;28;20084;-68
2022/03/30 12:29:38;;;;;;;8.40;5.57;;;12.00;95.70;;;;;;5004550;28;20478;-68
2022/03/30 12:32:06;;;;;;;7.82;5.60;;;12.50;88.20;;;;;;5007530;28;20021;-69
2022/03/30 12:34:35;;;;;;;7.50;4.28;;;12.10;87.80;;;;;;5012455;28;20026;-68
2022/03/30 12:37:04;;;;;;;8.18;5.57;;;12.20;87.80;;;;;;5017606;28;20022;-68
2022/03/30 12:39:40;;;;;;;6.95;5.43;;;12.30;87.00;;;;;;5011249;28;20065;-69
2022/03/30 12:42:12;;;;;;;7.38;5.43;;;12.30;85.40;;;;;;5011726;28;20022;-69
2022/03/30 12:44:46;;;;;;;8.75;4.82;;;12.50;95.00;;;;;;5007822;28;20112;-69
2022/03/30 12:47:24;;;;;;;10.07;5.57;;;12.40;87.50;;;;;;5007013;28;20049;-68
2022/03/30 12:49:53;;;;;;;13.00;6.07;;;12.50;88.10;;;;;;5011871;28;20422;-68
2022/03/30 12:52:20;;;;;;;11.35;5.10;;;13.20;87.30;;;;;;5009415;28;20560;-68
2022/03/30 12:54:47;;;;;;;8.52;5.38;;;12.60;86.50;;;;;;4996460;28;20018;-68
2022/03/30 12:57:25;;;;;;;9.13;5.93;;;13.20;86.40;;;;;;5002126;28;20866;-68
2022/03/30 12:59:50;;;;;;;7.70;5.60;;;12.50;86.40;;;;;;4997034;28;20511;-68
2022/03/30 13:02:23;;;;;;;15.15;6.32;;;12.20;95.30;;;;;;4997357;28;20061;-68
2022/03/30 13:04:55;;;;;;;8.70;5.50;;;12.30;85.40;;;;;;4997645;28;20034;-68
2022/03/30 13:07:25;;;;;;;7.70;5.15;;;12.10;87.80;;;;;;4995160;28;20088;-68
2022/03/30 13:10:01;;;;;;;8.05;5.00;;;12.20;87.90;;;;;;4997404;28;20022;-68
2022/03/30 13:12:39;;;;;;;8.27;5.78;;;12.20;88.40;;;;;;4998649;28;20549;-68